Nikolaevskoe, Russia
Current Conditions -  °F | °C
As of 1:30 PM on Sunday 21 Dec 2014 (Local Time) from ULLI Reporting Station
Broken Clouds Broken Clouds  
Wind Chill: 22°   Ceiling: 3200
Heat Index: 32°   Visibility: 6mi
Dew Point: 28°   Wind: 13mph
Humidity: 87%   Direction: 240°WSW
Pressure: 29.26"   Gusts: NA
Location:  58.57°N, 29.8°E
Report Text: ULLI 211030Z 24006MPS 9999 SCT011 BKN032 M00/M02 Q0991 88510350NOSIG
Loading
Personal Weather Stations






























Interactive Weather Map New forecast layout! Learn more

10-Day Weather Forecast

Advertisements
Track Severe Weather on mobile